HEW weather

CLOSED Athen Helenikon Airport
Athens, Attica, Greece

Public forecast

Using degrees Celsius for public forecast. Weather courtesy of forecast.io.

Closest aviation weather report (METAR) to Athen Helenikon Airport

Closest report is Eleftherios Venizelos International Airport, 10.7 nm (19.7 km) ENE. Retrieved 2019/11/20 15:20 UTC (32 minutes ago):

LGAV 201520Z 15007KT 9999 FEW018TCU SCT030 19/14 Q1018 NOSIG

Closest aviation forecast (TAF) to Athen Helenikon Airport

Closest forecast is Eleftherios Venizelos International Airport, 10.7 nm (19.7 km) ENE. Retrieved 2019/11/20 12:12 UTC (4 hours ago):

TAF TAF LGAV 201100Z 2012/2112 15015KT 9999 FEW018 SCT020 PROB40 TEMPO 2012/2112 5000 RA FEW018TCU SCT020 BKN070 PROB30 TEMPO 2012/2015 2000 TSRA SCT010 FEW018CB BKN020 OVC070 BECMG 2015/2017 16015G25KT